Aeroporto :
LOGIN :

Iscrizione | Disclaimer

   EN    FR    IT 

 










Sommario :    VFR   VFR Marginale   IFR   IFR Intensivo   IFR Molto Intensivo
Visibilità : 
Base nubi : 
>= 8 km
>= 3000ft
5 / 8 km
1000 / 3000 ft
1500m / 5 km
500 / 1000 ft
800 / 1500m
200 / 500 ft
< 800m
< 200 ft
Simboli :   Temporali  Nebbia  Neve Forte  Precipitazioni Forti  Vento > 20 kt
SIGMETs :   Varie  Temporali  Ghiacco  Turbolenza  Onda orograficha  Ceneri Vulcaniche






- Altitudine del aeroporto : 479 ft
- Codice IATA : DOL


LFRG - Deauville

ULTIMO METAR :
  • 220400Z AUTO 01007KT 330V070 2900 +RA BR OVC003/// ///CB 14/13 Q1012

METARs OBSOLETI :
  • 220330Z AUTO 02008KT 350V050 3400 +RA BR OVC003/// ///CB 14/13 Q1012
  • 220300Z AUTO 03008KT 350V060 6000 RA OVC004/// ///TCU 14/13 Q1012
  • 220230Z AUTO 02007KT 350V050 9999 OVC005/// ///TCU 14/13 Q1012
  • 220200Z AUTO 03005KT 9999 OVC005/// ///TCU 14/13 Q1012
  • 220130Z AUTO 03006KT 360V080 9999 OVC005/// ///CB 14/13 Q1012
  • 220100Z AUTO 03006KT 350V080 9000 -RA OVC005/// ///CB 14/13 Q1012

Previsioni scadute.
ATIS : +33 2 31 65 65 36



MetMap, La meteo Aeronautica in un colpo d'occhio ! - Copyright ORBIFLY Dicembre 2007 - Disclaimer

ORBIFLY MET'MAP TEAM :

Programmazione e sviluppo : Alexandra Zaïnal
Concezione : Baudouin d'Aumeries
Aiuto per la programmazione : Marc-Olivier Méhu
Supporto tecnico e logistico : Manuel Goepfert
Aiuto per la traduzione : Arnaldo La Scala

Contatto : metmap@orbifly.com




FONTI E CREDITI :

   NOAA